Time;durP1;ratioP1;P1;durP2;ratioP2;P2;SDS_P1;SDS_P2;PMS_P1;PMS_P2;Temp;Humidity;BMP_temperature;BMP_pressure;BME280_temperature;BME280_humidity;BME280_pressure;Samples;Min_cycle;Max_cycle;Signal;HPM_P1;HPM_P2
2022/08/09 00:00:56;;;;;;;6.50;5.80;;;12.60;99.90;;;;;;4901547;29;20039;-80
2022/08/09 00:03:21;;;;;;;7.97;5.85;;;12.50;99.90;;;;;;4920376;29;20420;-80
2022/08/09 00:05:47;;;;;;;7.63;5.85;;;12.50;99.90;;;;;;4920484;29;20172;-80
2022/08/09 00:08:12;;;;;;;7.18;5.45;;;12.50;99.90;;;;;;4903855;29;20043;-79
2022/08/09 00:10:39;;;;;;;6.13;5.53;;;12.40;99.90;;;;;;4903058;29;20050;-80
2022/08/09 00:13:06;;;;;;;6.25;5.20;;;12.40;99.90;;;;;;4920188;29;20031;-80
2022/08/09 00:15:32;;;;;;;5.25;4.18;;;12.40;99.90;;;;;;4920108;29;20043;-80
2022/08/09 00:17:58;;;;;;;6.03;5.43;;;12.40;99.90;;;;;;4918929;29;20059;-80
2022/08/09 00:20:23;;;;;;;6.03;5.38;;;12.30;99.90;;;;;;4918764;29;20070;-80
2022/08/09 00:22:49;;;;;;;6.45;5.30;;;12.30;99.90;;;;;;4902570;29;20408;-80
2022/08/09 00:25:15;;;;;;;6.28;5.65;;;12.30;99.90;;;;;;4904263;29;20036;-79
2022/08/09 00:27:41;;;;;;;5.53;4.90;;;12.20;99.90;;;;;;4917713;29;20050;-80
2022/08/09 00:30:07;;;;;;;6.00;5.50;;;12.20;99.90;;;;;;4919727;29;20040;-80
2022/08/09 00:32:33;;;;;;;6.88;5.53;;;12.20;99.90;;;;;;4919231;29;20061;-80
2022/08/09 00:34:59;;;;;;;5.65;5.10;;;12.20;99.90;;;;;;4919439;29;20485;-80
2022/08/09 00:37:25;;;;;;;6.05;4.88;;;12.20;99.90;;;;;;4918255;29;20067;-80
2022/08/09 00:39:51;;;;;;;5.90;5.20;;;12.10;99.90;;;;;;4935300;29;20075;-80
2022/08/09 00:42:17;;;;;;;5.53;4.95;;;12.10;99.90;;;;;;4918876;29;20086;-79
2022/08/09 00:44:43;;;;;;;6.25;5.10;;;12.10;99.90;;;;;;4918157;29;20040;-80
2022/08/09 00:47:08;;;;;;;7.15;5.40;;;12.10;99.90;;;;;;4919409;29;20061;-80
2022/08/09 00:49:35;;;;;;;6.72;5.43;;;12.00;99.90;;;;;;4918564;29;20039;-80
2022/08/09 00:52:00;;;;;;;5.80;5.20;;;12.00;99.90;;;;;;4919473;29;20046;-80
2022/08/09 00:54:26;;;;;;;7.47;6.03;;;12.00;99.90;;;;;;4918846;29;20027;-80
2022/08/09 00:56:52;;;;;;;5.38;4.85;;;11.90;99.90;;;;;;4916093;29;20175;-80
2022/08/09 00:59:18;;;;;;;5.97;5.03;;;11.90;99.90;;;;;;4896445;29;20039;-80
2022/08/09 01:01:46;;;;;;;5.65;5.05;;;11.90;99.90;;;;;;4903654;29;20051;-80
2022/08/09 01:04:16;;;;;;;6.45;5.28;;;11.90;99.90;;;;;;4919641;29;20039;-80
2022/08/09 01:06:51;;;;;;;7.55;5.53;;;11.90;99.90;;;;;;4917983;29;20044;-80
2022/08/09 01:09:25;;;;;;;6.32;4.80;;;11.80;99.90;;;;;;4918433;29;20579;-80
2022/08/09 01:12:13;;;;;;;5.88;4.85;;;11.80;99.90;;;;;;4917722;29;20046;-80
2022/08/09 01:14:51;;;;;;;5.40;4.68;;;11.80;99.90;;;;;;4919178;29;20046;-80
2022/08/09 01:17:40;;;;;;;5.88;4.75;;;11.80;99.90;;;;;;4917141;29;20036;-80
2022/08/09 01:20:18;;;;;;;6.32;5.32;;;11.70;99.90;;;;;;4913036;29;20517;-80
2022/08/09 01:22:55;;;;;;;5.63;4.70;;;11.70;99.90;;;;;;4918693;29;20043;-80
2022/08/09 01:25:59;;;;;;;5.78;5.20;;;11.70;99.90;;;;;;4918903;29;20491;-80
2022/08/09 01:28:25;;;;;;;6.63;5.40;;;11.60;99.90;;;;;;4918573;29;20083;-80
2022/08/09 01:30:54;;;;;;;5.70;5.20;;;11.60;99.90;;;;;;4917229;29;20035;-80
2022/08/09 01:33:24;;;;;;;7.03;5.00;;;11.50;99.90;;;;;;4918955;29;20395;-80
2022/08/09 01:35:58;;;;;;;5.75;5.22;;;11.60;99.90;;;;;;4917948;29;20043;-80
2022/08/09 01:38:28;;;;;;;7.60;5.20;;;11.50;99.90;;;;;;4918317;29;20507;-80
2022/08/09 01:41:25;;;;;;;6.38;5.10;;;11.50;99.90;;;;;;4918723;29;20090;-80
2022/08/09 01:43:54;;;;;;;6.97;5.35;;;11.50;99.90;;;;;;4914686;29;20055;-80
2022/08/09 01:46:36;;;;;;;5.93;5.18;;;11.40;99.90;;;;;;4917519;29;20248;-80
2022/08/09 01:49:21;;;;;;;5.22;4.57;;;11.40;99.90;;;;;;4911433;29;20142;-80
2022/08/09 01:51:53;;;;;;;7.70;5.50;;;11.40;99.90;;;;;;4917276;29;20414;-80
2022/08/09 01:54:23;;;;;;;6.00;5.22;;;11.40;99.90;;;;;;4901811;29;20044;-80
2022/08/09 01:56:51;;;;;;;6.20;5.55;;;11.30;99.90;;;;;;4915851;29;20050;-79
2022/08/09 01:59:19;;;;;;;5.72;5.13;;;11.30;99.90;;;;;;4918408;29;20453;-80
2022/08/09 02:01:47;;;;;;;6.50;5.85;;;11.30;99.90;;;;;;4918280;29;20043;-80
2022/08/09 02:04:14;;;;;;;6.40;5.50;;;11.30;99.90;;;;;;4918235;29;20054;-80
2022/08/09 02:09:30;;;;;;;6.97;6.28;;;11.30;99.90;;;;;;4917161;29;20135;-80
2022/08/09 02:11:56;;;;;;;7.68;6.88;;;11.20;99.90;;;;;;4918112;29;20038;-80
2022/08/09 02:14:26;;;;;;;6.38;5.78;;;11.20;99.90;;;;;;4901872;29;20135;-80
2022/08/09 02:16:53;;;;;;;6.35;5.63;;;11.20;99.90;;;;;;4901290;29;20039;-80
2022/08/09 02:19:19;;;;;;;6.07;5.47;;;11.20;99.90;;;;;;4917060;29;20031;-80
2022/08/09 02:21:48;;;;;;;6.40;4.90;;;11.20;99.90;;;;;;4917063;29;20047;-80
2022/08/09 02:24:19;;;;;;;5.18;4.68;;;11.10;99.90;;;;;;4917150;29;20448;-80
2022/08/09 02:26:46;;;;;;;5.07;4.10;;;11.00;99.90;;;;;;4916883;29;20040;-80
2022/08/09 02:29:26;;;;;;;5.47;4.88;;;11.10;99.90;;;;;;4917751;29;20075;-80
2022/08/09 02:31:57;;;;;;;5.20;4.60;;;11.00;99.90;;;;;;4917963;29;20036;-80
2022/08/09 02:34:27;;;;;;;5.32;4.82;;;11.00;99.90;;;;;;4913978;29;20469;-80
2022/08/09 02:36:55;;;;;;;6.07;5.47;;;11.00;99.90;;;;;;4916412;29;20123;-80
2022/08/09 02:39:26;;;;;;;6.03;4.95;;;10.90;99.90;;;;;;4917820;29;20063;-80
2022/08/09 02:42:00;;;;;;;6.32;5.22;;;10.90;99.90;;;;;;4902123;29;20040;-80
2022/08/09 02:44:37;;;;;;;5.20;4.57;;;11.00;99.90;;;;;;4917898;29;20044;-80
2022/08/09 02:47:07;;;;;;;5.03;4.35;;;10.90;99.90;;;;;;4915064;29;20078;-80
2022/08/09 02:49:37;;;;;;;4.97;4.22;;;10.90;99.90;;;;;;4916306;29;20047;-80
2022/08/09 02:52:06;;;;;;;4.68;4.15;;;10.90;99.90;;;;;;4916972;29;20035;-80
2022/08/09 02:54:33;;;;;;;4.97;4.00;;;10.90;99.90;;;;;;4917468;29;20556;-80
2022/08/09 02:57:01;;;;;;;6.15;4.53;;;10.80;99.90;;;;;;4916339;29;20508;-80
2022/08/09 02:59:27;;;;;;;5.10;4.07;;;10.80;99.90;;;;;;4916009;29;20099;-81
2022/08/09 03:01:57;;;;;;;5.40;4.03;;;10.80;99.90;;;;;;4916585;29;20492;-80
2022/08/09 03:04:24;;;;;;;4.63;3.45;;;10.80;99.90;;;;;;4917296;29;20048;-80
2022/08/09 03:06:50;;;;;;;5.55;3.83;;;10.80;99.90;;;;;;4916663;29;20048;-80
2022/08/09 03:09:19;;;;;;;4.63;3.60;;;10.80;99.90;;;;;;4917392;29;20415;-80
2022/08/09 03:11:46;;;;;;;4.30;3.30;;;10.70;99.90;;;;;;4916505;29;20036;-80
2022/08/09 03:14:12;;;;;;;6.18;3.90;;;10.70;99.90;;;;;;4933027;29;20036;-80
2022/08/09 03:16:39;;;;;;;5.00;4.50;;;10.70;99.90;;;;;;4915696;29;20496;-80
2022/08/09 03:19:06;;;;;;;4.70;3.78;;;10.70;99.90;;;;;;4917099;29;20036;-80
2022/08/09 03:21:33;;;;;;;5.00;3.78;;;10.70;99.90;;;;;;4917621;29;20050;-80
2022/08/09 03:23:59;;;;;;;5.80;3.58;;;10.70;99.90;;;;;;4917292;29;20048;-79
2022/08/09 03:26:25;;;;;;;4.28;3.30;;;10.70;99.90;;;;;;4916177;29;20039;-79
2022/08/09 03:28:54;;;;;;;3.60;2.85;;;10.60;99.90;;;;;;4915366;29;20440;-80
2022/08/09 03:31:20;;;;;;;4.43;3.85;;;10.60;99.90;;;;;;4917116;29;20072;-80
2022/08/09 03:33:47;;;;;;;4.40;3.55;;;10.60;99.90;;;;;;4917127;29;20044;-80
2022/08/09 03:36:13;;;;;;;4.22;3.67;;;10.60;99.90;;;;;;4917959;29;20028;-80
2022/08/09 03:38:41;;;;;;;4.40;3.55;;;10.60;99.90;;;;;;4919830;29;20516;-80
2022/08/09 03:41:06;;;;;;;5.72;4.00;;;10.50;99.90;;;;;;4920788;29;20040;-80
2022/08/09 03:43:32;;;;;;;4.82;3.75;;;10.60;99.90;;;;;;4920326;29;20568;-79
2022/08/09 03:45:59;;;;;;;5.13;3.92;;;10.60;99.90;;;;;;4904142;29;20047;-80
2022/08/09 03:48:25;;;;;;;7.10;4.85;;;10.50;99.90;;;;;;4920572;29;20397;-80
2022/08/09 03:50:53;;;;;;;5.47;4.60;;;10.50;99.90;;;;;;4904141;29;20047;-79
2022/08/09 03:53:20;;;;;;;5.93;5.10;;;10.50;99.90;;;;;;4920556;29;20039;-79
2022/08/09 03:55:46;;;;;;;6.93;5.47;;;10.50;99.90;;;;;;4920078;29;20047;-80
2022/08/09 03:58:12;;;;;;;7.57;5.82;;;10.50;99.90;;;;;;4920148;29;20029;-79
2022/08/09 04:00:40;;;;;;;7.32;6.03;;;10.60;99.90;;;;;;4919219;29;20098;-79
2022/08/09 04:03:07;;;;;;;7.05;4.90;;;10.60;99.90;;;;;;4919635;29;20456;-79
2022/08/09 04:05:32;;;;;;;6.88;5.43;;;10.60;99.90;;;;;;4919332;29;20043;-79
2022/08/09 04:07:58;;;;;;;6.78;5.18;;;10.60;99.90;;;;;;4916106;29;20199;-79
2022/08/09 04:10:24;;;;;;;6.22;5.03;;;10.60;99.90;;;;;;4901393;29;20048;-79
2022/08/09 04:12:52;;;;;;;6.80;4.88;;;10.60;99.90;;;;;;4903345;29;20046;-79
2022/08/09 04:15:23;;;;;;;7.35;5.00;;;10.50;99.90;;;;;;4915660;29;20510;-79
2022/08/09 04:17:48;;;;;;;7.30;5.50;;;10.50;99.90;;;;;;4919114;29;20401;-79
2022/08/09 04:20:16;;;;;;;7.88;5.65;;;10.60;99.90;;;;;;4903164;29;20036;-79
2022/08/09 04:22:43;;;;;;;7.53;4.97;;;10.50;99.90;;;;;;4920139;29;20048;-79
2022/08/09 04:25:09;;;;;;;6.75;5.55;;;10.50;99.90;;;;;;4903934;29;20407;-79
2022/08/09 04:27:39;;;;;;;6.65;5.55;;;10.50;99.90;;;;;;4918065;29;20481;-79
2022/08/09 04:30:10;;;;;;;6.28;4.95;;;10.60;99.90;;;;;;4919127;29;20051;-79
2022/08/09 04:32:36;;;;;;;6.13;5.00;;;10.60;99.90;;;;;;4919854;29;20031;-79
2022/08/09 04:35:02;;;;;;;6.00;5.00;;;10.50;99.90;;;;;;4919381;29;20042;-79
2022/08/09 04:37:27;;;;;;;7.60;5.22;;;10.60;99.90;;;;;;4902983;29;20477;-79
2022/08/09 04:39:53;;;;;;;7.68;4.65;;;10.60;99.90;;;;;;4911270;29;20042;-80
2022/08/09 04:42:19;;;;;;;6.03;4.68;;;10.60;99.90;;;;;;4903297;29;20161;-79
2022/08/09 04:44:45;;;;;;;6.25;4.55;;;10.70;99.90;;;;;;4917791;29;20048;-80
2022/08/09 04:47:10;;;;;;;5.00;4.13;;;10.60;99.90;;;;;;4919445;29;20044;-79
2022/08/09 04:49:36;;;;;;;5.57;4.72;;;10.70;99.90;;;;;;4919592;29;20119;-80
2022/08/09 04:52:05;;;;;;;5.88;4.75;;;10.70;99.90;;;;;;4918858;29;20035;-79
2022/08/09 04:54:31;;;;;;;6.63;4.97;;;10.70;99.90;;;;;;4916925;29;20035;-80
2022/08/09 04:56:58;;;;;;;5.80;4.65;;;10.80;99.90;;;;;;4918658;29;20039;-80
2022/08/09 04:59:23;;;;;;;5.70;4.70;;;10.80;99.90;;;;;;4917945;29;20122;-79
2022/08/09 05:01:49;;;;;;;7.70;5.35;;;10.80;99.90;;;;;;4919233;29;20135;-80
2022/08/09 05:04:15;;;;;;;6.82;5.57;;;10.90;99.90;;;;;;4917121;29;20067;-80
2022/08/09 05:06:41;;;;;;;6.72;5.63;;;10.90;99.90;;;;;;4914702;29;20062;-80
2022/08/09 05:09:07;;;;;;;7.20;5.45;;;11.00;99.90;;;;;;4919157;29;20043;-80
2022/08/09 05:11:33;;;;;;;9.73;7.25;;;11.00;99.90;;;;;;4918336;29;20066;-80
2022/08/09 05:13:58;;;;;;;8.77;6.15;;;11.00;99.90;;;;;;4918106;29;20039;-80
2022/08/09 05:16:24;;;;;;;8.07;5.90;;;11.10;99.90;;;;;;4919184;29;20056;-79
2022/08/09 05:18:50;;;;;;;9.23;6.68;;;11.20;99.90;;;;;;4903347;29;20600;-79
2022/08/09 05:21:16;;;;;;;10.07;7.15;;;11.30;99.90;;;;;;4917704;29;20042;-79
2022/08/09 05:23:42;;;;;;;10.13;7.13;;;11.30;99.90;;;;;;4918031;29;20052;-80
2022/08/09 05:26:07;;;;;;;12.60;7.93;;;11.40;99.90;;;;;;4918553;29;20098;-80
2022/08/09 05:28:33;;;;;;;10.90;7.38;;;11.60;99.90;;;;;;4917226;29;20071;-80
2022/08/09 05:30:59;;;;;;;12.18;8.30;;;11.60;99.90;;;;;;4901854;29;20100;-80
2022/08/09 05:33:24;;;;;;;13.82;8.88;;;11.70;99.90;;;;;;4903245;29;20039;-80
2022/08/09 05:35:50;;;;;;;11.50;8.25;;;11.80;99.90;;;;;;4918842;29;20453;-80
2022/08/09 05:38:15;;;;;;;12.38;8.73;;;11.90;99.90;;;;;;4915408;29;20035;-80
2022/08/09 05:40:41;;;;;;;13.35;8.70;;;12.00;99.90;;;;;;4915838;29;20048;-80
2022/08/09 05:43:07;;;;;;;16.13;10.50;;;12.10;99.90;;;;;;4918752;29;20035;-80
2022/08/09 05:45:32;;;;;;;17.63;11.10;;;12.20;99.90;;;;;;4902787;29;20050;-80
2022/08/09 05:47:58;;;;;;;23.83;12.73;;;12.40;99.90;;;;;;4918448;29;20050;-80
2022/08/09 05:50:24;;;;;;;21.35;11.93;;;12.60;99.90;;;;;;4916203;29;20131;-80
2022/08/09 05:52:51;;;;;;;19.95;11.93;;;12.80;99.90;;;;;;4918338;29;20036;-80
2022/08/09 05:55:17;;;;;;;14.88;10.18;;;13.00;99.90;;;;;;4902797;29;20051;-80
2022/08/09 05:57:42;;;;;;;17.27;10.70;;;13.10;99.90;;;;;;4916459;29;20039;-80
2022/08/09 06:00:09;;;;;;;20.88;11.68;;;13.20;99.90;;;;;;4915720;29;20058;-80
2022/08/09 06:02:34;;;;;;;21.02;11.52;;;13.30;99.90;;;;;;4918328;29;20496;-80
2022/08/09 06:05:01;;;;;;;22.65;12.95;;;13.40;99.90;;;;;;4902688;29;20075;-80
2022/08/09 06:07:28;;;;;;;17.75;11.55;;;13.60;99.90;;;;;;4918043;29;20099;-80
2022/08/09 06:09:54;;;;;;;19.63;12.93;;;13.80;99.90;;;;;;4915613;29;20044;-80
2022/08/09 06:12:19;;;;;;;16.25;10.82;;;14.00;99.90;;;;;;4917281;29;20098;-79
2022/08/09 06:14:45;;;;;;;16.83;10.68;;;14.10;99.90;;;;;;4901850;29;20050;-79
2022/08/09 06:17:10;;;;;;;14.40;10.55;;;14.30;99.90;;;;;;4914671;29;20036;-81
2022/08/09 06:19:36;;;;;;;13.77;10.10;;;14.40;99.90;;;;;;4901821;29;20053;-81
2022/08/09 06:22:02;;;;;;;16.63;10.68;;;14.50;99.90;;;;;;4918503;29;20048;-80
2022/08/09 06:24:28;;;;;;;12.43;9.52;;;14.70;99.90;;;;;;4915364;29;20036;-81
2022/08/09 06:26:53;;;;;;;14.55;10.80;;;14.80;99.90;;;;;;4916909;29;20044;-82
2022/08/09 06:29:19;;;;;;;11.25;8.88;;;15.00;99.90;;;;;;4917269;29;20039;-79
2022/08/09 06:31:45;;;;;;;11.13;9.65;;;15.00;99.90;;;;;;4918249;29;20505;-80
2022/08/09 06:34:10;;;;;;;11.52;8.98;;;15.20;99.90;;;;;;4918442;29;20051;-81
2022/08/09 06:36:36;;;;;;;11.60;9.20;;;15.40;99.90;;;;;;4917445;29;20043;-81
2022/08/09 06:39:02;;;;;;;12.07;8.38;;;15.40;99.90;;;;;;4918019;29;20043;-81
2022/08/09 06:41:28;;;;;;;10.75;8.30;;;15.60;99.90;;;;;;4918645;29;20601;-80
2022/08/09 06:43:54;;;;;;;10.77;8.02;;;15.70;99.90;;;;;;4902873;29;20067;-79
2022/08/09 06:46:20;;;;;;;9.50;7.50;;;15.80;99.90;;;;;;4916524;29;20122;-80
2022/08/09 06:48:45;;;;;;;9.48;7.57;;;15.90;99.90;;;;;;4901625;29;20130;-82
2022/08/09 06:51:11;;;;;;;10.70;7.45;;;16.10;99.90;;;;;;4901854;29;20468;-83
2022/08/09 06:53:38;;;;;;;10.45;6.95;;;16.20;99.90;;;;;;4915615;29;20042;-80
2022/08/09 06:56:04;;;;;;;8.27;6.70;;;16.30;99.90;;;;;;4933752;29;20071;-80
2022/08/09 06:58:30;;;;;;;7.65;6.18;;;16.30;99.90;;;;;;4917413;29;20090;-81
2022/08/09 07:00:56;;;;;;;8.10;7.25;;;16.40;99.90;;;;;;4917904;29;20048;-81
2022/08/09 07:03:23;;;;;;;8.85;6.65;;;16.50;99.90;;;;;;4901796;29;20035;-81
2022/08/09 07:05:49;;;;;;;9.57;5.63;;;16.50;99.90;;;;;;4916725;29;20047;-81
2022/08/09 07:08:15;;;;;;;7.88;5.47;;;16.70;99.90;;;;;;4917558;29;20492;-80
2022/08/09 07:10:40;;;;;;;7.22;5.38;;;16.90;99.90;;;;;;4908394;29;20047;-81
2022/08/09 07:13:06;;;;;;;6.80;5.47;;;16.90;99.90;;;;;;4920765;29;20031;-82
2022/08/09 07:15:32;;;;;;;7.20;5.40;;;17.00;99.90;;;;;;4920741;29;20047;-82
2022/08/09 07:17:58;;;;;;;6.80;5.10;;;17.10;99.90;;;;;;4919410;29;20043;-83
2022/08/09 07:20:24;;;;;;;7.70;4.95;;;17.20;99.90;;;;;;4920701;29;20123;-83
2022/08/09 07:22:51;;;;;;;5.50;4.30;;;17.30;99.90;;;;;;4904116;29;20087;-83
2022/08/09 07:25:16;;;;;;;5.40;4.53;;;17.30;99.90;;;;;;4921048;29;20059;-84
2022/08/09 07:27:42;;;;;;;4.70;4.10;;;17.40;99.90;;;;;;4905182;29;20566;-82
2022/08/09 07:30:12;;;;;;;5.82;4.30;;;17.40;99.90;;;;;;4917009;29;20503;-83
2022/08/09 07:32:38;;;;;;;5.30;4.53;;;17.60;99.90;;;;;;4920394;29;20126;-82
2022/08/09 07:35:06;;;;;;;5.50;3.80;;;17.60;99.90;;;;;;4919200;29;20043;-81
2022/08/09 07:37:31;;;;;;;5.50;3.80;;;17.70;99.90;;;;;;4915514;29;20071;-82
2022/08/09 07:39:57;;;;;;;5.82;3.63;;;17.70;99.90;;;;;;4904954;29;20567;-82
2022/08/09 07:42:23;;;;;;;4.68;3.10;;;17.80;99.90;;;;;;4920875;29;20071;-81
2022/08/09 07:44:49;;;;;;;3.05;2.75;;;17.90;99.90;;;;;;4920781;29;20054;-82
2022/08/09 07:47:16;;;;;;;3.38;2.60;;;17.90;99.90;;;;;;4920899;29;20490;-84
2022/08/09 07:49:42;;;;;;;5.15;2.80;;;17.90;99.90;;;;;;4921130;29;20050;-83
2022/08/09 07:52:07;;;;;;;2.72;2.20;;;18.10;99.90;;;;;;4904989;29;20407;-83
2022/08/09 07:54:33;;;;;;;1.95;1.52;;;18.10;99.90;;;;;;4905392;29;20094;-82
2022/08/09 07:56:59;;;;;;;2.53;1.52;;;18.20;99.90;;;;;;4903944;29;20039;-82
2022/08/09 07:59:25;;;;;;;3.05;1.40;;;18.40;99.90;;;;;;4920647;29;20051;-81
2022/08/09 08:01:50;;;;;;;3.47;1.80;;;18.50;99.90;;;;;;4920742;29;20420;-81
2022/08/09 08:04:16;;;;;;;2.15;1.42;;;18.60;99.90;;;;;;4920552;29;20492;-81
2022/08/09 08:06:41;;;;;;;2.03;1.58;;;18.60;99.90;;;;;;4920509;29;20103;-82
2022/08/09 08:09:07;;;;;;;2.70;1.83;;;18.70;99.90;;;;;;4904521;29;20571;-81
2022/08/09 08:11:32;;;;;;;3.92;1.90;;;18.80;99.90;;;;;;4902714;29;20532;-82
2022/08/09 08:13:58;;;;;;;3.30;1.67;;;18.70;99.90;;;;;;4919730;29;20122;-82
2022/08/09 08:16:24;;;;;;;2.85;1.50;;;18.90;99.90;;;;;;4919438;29;20457;-82
2022/08/09 08:18:49;;;;;;;3.28;1.30;;;19.00;99.90;;;;;;4919579;29;20035;-83
2022/08/09 08:21:15;;;;;;;2.63;1.38;;;19.10;99.90;;;;;;4919341;29;20123;-82
2022/08/09 08:23:41;;;;;;;2.00;1.35;;;19.30;99.90;;;;;;4919667;29;20102;-83
2022/08/09 08:26:06;;;;;;;1.85;1.20;;;19.70;99.90;;;;;;4919531;29;20044;-82
2022/08/09 08:28:32;;;;;;;4.07;1.33;;;20.00;99.90;;;;;;4920158;29;20393;-82
2022/08/09 08:30:58;;;;;;;1.35;1.10;;;20.50;99.90;;;;;;4903385;29;20297;-82
2022/08/09 08:33:24;;;;;;;1.92;1.10;;;20.80;99.90;;;;;;4903622;29;20068;-81
2022/08/09 08:35:50;;;;;;;1.92;1.10;;;21.40;99.90;;;;;;4919121;29;20036;-83
2022/08/09 08:38:16;;;;;;;2.17;1.00;;;21.90;99.90;;;;;;4918246;29;20070;-83
2022/08/09 08:40:41;;;;;;;2.20;1.00;;;22.60;99.90;;;;;;4900185;29;20076;-82
2022/08/09 08:43:07;;;;;;;2.75;1.13;;;23.30;99.90;;;;;;4903672;29;20500;-82
2022/08/09 08:45:41;;;;;;;1.77;0.80;;;23.70;99.90;;;;;;4903507;29;20040;-82
2022/08/09 08:48:08;;;;;;;1.38;0.85;;;24.10;99.30;;;;;;4917345;29;20040;-81
2022/08/09 08:50:34;;;;;;;1.48;0.95;;;24.40;94.00;;;;;;4903776;29;20066;-83
2022/08/09 08:53:00;;;;;;;3.15;0.82;;;24.60;91.10;;;;;;4918968;29;20488;-82
2022/08/09 08:55:26;;;;;;;1.20;0.65;;;24.80;90.90;;;;;;4917968;29;20040;-83
2022/08/09 08:57:54;;;;;;;0.75;0.65;;;24.80;90.70;;;;;;4919079;29;20515;-82
2022/08/09 09:00:20;;;;;;;1.70;0.85;;;24.40;90.50;;;;;;4919791;29;20040;-82
2022/08/09 09:02:47;;;;;;;1.73;0.80;;;23.80;90.20;;;;;;4919728;29;20131;-83
2022/08/09 09:05:18;;;;;;;2.13;1.25;;;23.50;90.90;;;;;;4919028;29;20059;-82
2022/08/09 09:07:49;;;;;;;0.95;0.70;;;23.20;90.20;;;;;;4918508;29;20035;-83
2022/08/09 09:10:16;;;;;;;1.90;0.70;;;22.90;90.90;;;;;;4918669;29;20036;-82
2022/08/09 09:12:44;;;;;;;1.30;0.68;;;23.00;91.40;;;;;;4902716;29;20054;-83
2022/08/09 09:15:10;;;;;;;1.85;0.77;;;22.80;90.00;;;;;;4919484;29;20130;-82
2022/08/09 09:17:36;;;;;;;2.25;0.90;;;22.90;90.00;;;;;;4901786;29;20123;-83
2022/08/09 09:20:07;;;;;;;1.20;0.70;;;23.30;90.80;;;;;;4919175;29;20067;-82
2022/08/09 09:22:58;;;;;;;1.85;0.80;;;23.50;88.50;;;;;;4917716;29;20526;-82
2022/08/09 09:25:35;;;;;;;0.75;0.73;;;23.30;83.60;;;;;;4918443;29;20061;-82
2022/08/09 09:28:02;;;;;;;1.65;0.70;;;22.90;86.10;;;;;;4920603;29;20043;-82
2022/08/09 09:30:28;;;;;;;1.42;0.60;;;22.50;87.40;;;;;;4918042;29;20044;-83
2022/08/09 09:33:03;;;;;;;2.22;0.90;;;22.50;90.20;;;;;;4901182;29;20059;-82
2022/08/09 09:35:28;;;;;;;1.55;0.63;;;22.90;86.90;;;;;;4916410;29;20127;-83
2022/08/09 09:37:54;;;;;;;2.10;0.85;;;23.30;88.30;;;;;;4901841;29;20474;-82
2022/08/09 09:40:19;;;;;;;2.22;0.90;;;23.40;86.60;;;;;;4899407;29;20040;-82
2022/08/09 09:42:55;;;;;;;2.03;0.85;;;23.40;85.90;;;;;;4917110;29;20047;-83
2022/08/09 09:45:22;;;;;;;1.52;0.70;;;23.50;85.40;;;;;;4918011;29;20158;-83
2022/08/09 09:47:48;;;;;;;1.65;0.73;;;23.80;87.20;;;;;;4901072;29;20142;-82
2022/08/09 09:50:20;;;;;;;2.40;0.70;;;24.30;85.80;;;;;;4918451;29;20118;-83
2022/08/09 09:52:51;;;;;;;0.93;0.60;;;24.60;81.40;;;;;;4902646;29;20039;-83
2022/08/09 09:55:16;;;;;;;0.77;0.70;;;24.80;82.30;;;;;;4917973;29;20040;-82
2022/08/09 09:58:03;;;;;;;1.20;0.70;;;25.00;81.00;;;;;;4932503;29;20062;-83
2022/08/09 10:00:29;;;;;;;1.33;0.68;;;25.10;77.50;;;;;;4930626;29;20054;-82
2022/08/09 10:02:54;;;;;;;0.80;0.68;;;25.30;78.70;;;;;;4916311;29;20040;-82
2022/08/09 10:05:20;;;;;;;0.90;0.77;;;25.50;78.30;;;;;;4917447;29;20091;-82
2022/08/09 10:07:46;;;;;;;1.08;0.60;;;25.60;76.80;;;;;;4901675;29;20406;-82
2022/08/09 10:10:11;;;;;;;1.27;0.68;;;25.60;75.20;;;;;;4916829;29;20067;-83
2022/08/09 10:12:39;;;;;;;1.80;0.40;;;25.70;75.50;;;;;;4901351;29;20134;-83
2022/08/09 10:15:06;;;;;;;0.40;0.40;;;25.90;76.40;;;;;;4917548;29;20090;-82
2022/08/09 10:17:34;;;;;;;1.20;0.60;;;26.10;74.50;;;;;;4917080;29;20046;-82
2022/08/09 10:20:02;;;;;;;0.40;0.30;;;26.10;73.30;;;;;;4917487;29;20039;-84
2022/08/09 10:22:33;;;;;;;1.27;0.50;;;26.30;75.10;;;;;;4918034;29;20036;-83
2022/08/09 10:25:00;;;;;;;1.30;0.40;;;26.60;73.00;;;;;;4918547;29;20043;-83
2022/08/09 10:27:25;;;;;;;0.85;0.40;;;26.70;72.20;;;;;;4901190;29;20105;-82
2022/08/09 10:29:52;;;;;;;0.38;0.30;;;26.80;69.60;;;;;;4916754;29;20040;-83
2022/08/09 10:32:19;;;;;;;0.60;0.38;;;26.70;68.20;;;;;;4917034;29;20146;-83
2022/08/09 10:34:46;;;;;;;1.00;0.40;;;26.50;69.40;;;;;;4917351;29;20047;-82
2022/08/09 10:37:12;;;;;;;0.50;0.50;;;26.50;69.60;;;;;;4916852;29;20488;-83
2022/08/09 10:39:39;;;;;;;1.50;0.40;;;26.60;68.40;;;;;;4916332;29;20047;-83
2022/08/09 10:42:05;;;;;;;0.60;0.38;;;26.50;68.70;;;;;;4910103;29;20044;-84
2022/08/09 10:44:33;;;;;;;0.50;0.50;;;26.70;70.40;;;;;;4915862;29;20109;-84
2022/08/09 10:47:04;;;;;;;1.20;0.40;;;27.00;68.80;;;;;;4911669;29;20555;-81
2022/08/09 10:49:39;;;;;;;0.95;0.40;;;27.30;69.40;;;;;;4899649;29;20048;-78
2022/08/09 10:52:14;;;;;;;0.70;0.40;;;27.50;68.40;;;;;;4917325;29;20042;-81
2022/08/09 10:54:40;;;;;;;0.80;0.50;;;27.50;65.90;;;;;;4915905;29;20039;-81
2022/08/09 10:57:09;;;;;;;1.08;0.50;;;27.60;65.10;;;;;;4916732;29;20036;-83
2022/08/09 10:59:37;;;;;;;0.40;0.40;;;27.40;65.70;;;;;;4917353;29;20036;-80
2022/08/09 11:02:05;;;;;;;0.47;0.40;;;27.50;65.30;;;;;;4917623;29;20039;-82
2022/08/09 11:04:32;;;;;;;0.30;0.30;;;27.60;65.10;;;;;;4901966;29;20035;-80
2022/08/09 11:06:57;;;;;;;0.20;0.20;;;27.70;64.40;;;;;;4915355;29;20504;-81
2022/08/09 11:09:38;;;;;;;0.20;0.20;;;27.80;62.80;;;;;;4916862;29;20052;-80
2022/08/09 11:12:18;;;;;;;0.70;0.50;;;27.70;60.90;;;;;;4901536;29;20444;-82
2022/08/09 11:14:54;;;;;;;0.52;0.40;;;27.70;62.10;;;;;;4916818;29;20035;-79
2022/08/09 11:17:20;;;;;;;0.77;0.30;;;27.60;60.60;;;;;;4894520;29;20075;-80
2022/08/09 11:19:57;;;;;;;0.30;0.28;;;27.50;63.60;;;;;;4917069;29;20078;-79
2022/08/09 11:22:41;;;;;;;0.68;0.40;;;27.70;62.20;;;;;;4896322;29;20057;-80
2022/08/09 11:25:16;;;;;;;0.30;0.30;;;27.80;61.50;;;;;;4917027;29;20048;-79
2022/08/09 11:27:50;;;;;;;2.03;0.60;;;28.00;61.40;;;;;;4915117;29;20091;-80
2022/08/09 11:30:21;;;;;;;0.40;0.40;;;27.90;61.20;;;;;;4916001;29;20059;-80
2022/08/09 11:32:51;;;;;;;0.40;0.40;;;27.80;62.00;;;;;;4917184;29;20071;-79
2022/08/09 11:35:24;;;;;;;0.30;0.30;;;27.90;62.30;;;;;;4901268;29;20083;-79
2022/08/09 11:37:51;;;;;;;1.42;0.40;;;28.10;62.20;;;;;;4916977;29;20051;-79
2022/08/09 11:40:23;;;;;;;0.63;0.50;;;28.20;62.40;;;;;;4901093;29;20054;-79
2022/08/09 11:42:52;;;;;;;0.70;0.32;;;28.50;61.10;;;;;;4917351;29;20496;-79
2022/08/09 11:45:28;;;;;;;2.10;0.50;;;28.50;61.00;;;;;;4916771;29;20040;-80
2022/08/09 11:47:56;;;;;;;0.82;0.30;;;28.60;60.60;;;;;;4918041;29;20044;-81
2022/08/09 11:50:22;;;;;;;0.40;0.30;;;28.60;59.70;;;;;;4900347;29;20040;-81
2022/08/09 11:52:57;;;;;;;0.30;0.30;;;28.40;59.10;;;;;;4915723;29;20452;-80
2022/08/09 11:55:41;;;;;;;0.45;0.40;;;28.30;60.00;;;;;;4916477;29;20032;-82
2022/08/09 11:58:10;;;;;;;1.02;0.30;;;28.40;58.70;;;;;;4920196;29;20492;-81
2022/08/09 12:00:52;;;;;;;0.60;0.60;;;28.30;61.00;;;;;;4935841;29;20058;-81
2022/08/09 12:03:20;;;;;;;0.38;0.25;;;28.20;60.40;;;;;;4920822;29;20400;-80
2022/08/09 12:05:46;;;;;;;0.73;0.40;;;28.30;60.60;;;;;;4904062;29;20067;-80
2022/08/09 12:08:13;;;;;;;0.45;0.30;;;28.40;60.60;;;;;;4920864;29;20054;-82
2022/08/09 12:10:54;;;;;;;0.35;0.30;;;28.50;57.90;;;;;;4918069;29;20068;-79
2022/08/09 12:13:39;;;;;;;0.52;0.40;;;28.50;59.70;;;;;;4901107;29;20036;-81
2022/08/09 12:16:07;;;;;;;0.40;0.40;;;28.80;59.70;;;;;;4916223;29;20071;-80
2022/08/09 12:18:34;;;;;;;1.15;0.30;;;29.00;58.10;;;;;;4916163;29;20051;-80
2022/08/09 12:21:03;;;;;;;0.85;0.40;;;28.80;57.80;;;;;;4900155;29;20047;-80
2022/08/09 12:23:30;;;;;;;0.63;0.40;;;28.50;58.20;;;;;;4903273;29;20095;-80
2022/08/09 12:25:57;;;;;;;0.45;0.30;;;28.60;60.20;;;;;;4919091;29;20495;-80
2022/08/09 12:28:25;;;;;;;0.55;0.38;;;29.00;60.20;;;;;;4919961;29;20050;-78
2022/08/09 12:30:52;;;;;;;0.57;0.40;;;29.40;58.30;;;;;;4919623;29;20044;-78
2022/08/09 12:33:19;;;;;;;0.30;0.30;;;29.40;56.80;;;;;;4919985;29;20047;-78
2022/08/09 12:35:45;;;;;;;0.50;0.50;;;29.20;55.80;;;;;;4918449;29;20035;-78
2022/08/09 12:38:29;;;;;;;0.70;0.40;;;29.00;55.50;;;;;;4917953;29;20088;-78
2022/08/09 12:40:56;;;;;;;0.32;0.30;;;29.00;57.00;;;;;;4919372;29;20043;-77
2022/08/09 12:43:27;;;;;;;0.43;0.43;;;29.10;57.80;;;;;;4919694;29;20415;-78
2022/08/09 12:45:55;;;;;;;0.50;0.35;;;29.30;56.90;;;;;;4919178;29;20413;-77
2022/08/09 12:48:21;;;;;;;0.73;0.40;;;29.30;57.30;;;;;;4918830;29;20389;-78
2022/08/09 12:50:49;;;;;;;0.60;0.50;;;29.40;57.20;;;;;;4919320;29;20048;-81
2022/08/09 12:53:31;;;;;;;1.05;0.50;;;29.40;56.40;;;;;;4918674;29;20039;-79